sensor_id;sensor_type;location;lat;lon;timestamp;P1;durP1;ratioP1;P2;durP2;ratioP2
4375;SDS011;2202;50.866;12.750;2023-05-10T00:01:28;16.03;;;6.30;;
4375;SDS011;2202;50.866;12.750;2023-05-10T00:03:55;9.20;;;5.90;;
4375;SDS011;2202;50.866;12.750;2023-05-10T00:06:22;7.03;;;4.77;;
4375;SDS011;2202;50.866;12.750;2023-05-10T00:08:49;8.57;;;5.23;;
4375;SDS011;2202;50.866;12.750;2023-05-10T00:11:17;10.53;;;5.63;;
4375;SDS011;2202;50.866;12.750;2023-05-10T00:13:44;8.00;;;5.07;;
4375;SDS011;2202;50.866;12.750;2023-05-10T00:16:10;8.43;;;5.23;;
4375;SDS011;2202;50.866;12.750;2023-05-10T00:18:38;8.30;;;5.47;;
4375;SDS011;2202;50.866;12.750;2023-05-10T00:21:05;9.27;;;6.10;;
4375;SDS011;2202;50.866;12.750;2023-05-10T00:23:31;12.60;;;5.67;;
4375;SDS011;2202;50.866;12.750;2023-05-10T00:25:58;9.57;;;5.60;;
4375;SDS011;2202;50.866;12.750;2023-05-10T00:28:28;10.20;;;6.03;;
4375;SDS011;2202;50.866;12.750;2023-05-10T00:30:55;8.83;;;4.93;;
4375;SDS011;2202;50.866;12.750;2023-05-10T00:33:22;11.73;;;5.33;;
4375;SDS011;2202;50.866;12.750;2023-05-10T00:35:49;8.17;;;5.20;;
4375;SDS011;2202;50.866;12.750;2023-05-10T00:38:16;9.93;;;6.00;;
4375;SDS011;2202;50.866;12.750;2023-05-10T00:40:43;8.70;;;5.63;;
4375;SDS011;2202;50.866;12.750;2023-05-10T00:43:10;7.90;;;5.67;;
4375;SDS011;2202;50.866;12.750;2023-05-10T00:45:38;8.57;;;5.03;;
4375;SDS011;2202;50.866;12.750;2023-05-10T00:48:06;9.50;;;5.17;;
4375;SDS011;2202;50.866;12.750;2023-05-10T00:50:33;9.53;;;5.53;;
4375;SDS011;2202;50.866;12.750;2023-05-10T00:53:00;7.23;;;5.00;;
4375;SDS011;2202;50.866;12.750;2023-05-10T00:55:28;11.13;;;6.67;;
4375;SDS011;2202;50.866;12.750;2023-05-10T00:57:56;21.93;;;5.63;;
4375;SDS011;2202;50.866;12.750;2023-05-10T01:00:22;8.10;;;5.00;;
4375;SDS011;2202;50.866;12.750;2023-05-10T01:02:51;11.87;;;6.40;;
4375;SDS011;2202;50.866;12.750;2023-05-10T01:05:20;8.47;;;5.87;;
4375;SDS011;2202;50.866;12.750;2023-05-10T01:07:47;10.03;;;5.20;;
4375;SDS011;2202;50.866;12.750;2023-05-10T01:10:14;10.73;;;5.20;;
4375;SDS011;2202;50.866;12.750;2023-05-10T01:12:42;10.17;;;5.10;;
4375;SDS011;2202;50.866;12.750;2023-05-10T01:15:11;10.63;;;5.93;;
4375;SDS011;2202;50.866;12.750;2023-05-10T01:17:40;9.63;;;5.43;;
4375;SDS011;2202;50.866;12.750;2023-05-10T01:20:11;8.97;;;5.67;;
4375;SDS011;2202;50.866;12.750;2023-05-10T01:22:51;8.60;;;5.00;;
4375;SDS011;2202;50.866;12.750;2023-05-10T01:31:35;10.33;;;6.13;;
4375;SDS011;2202;50.866;12.750;2023-05-10T01:34:30;9.27;;;5.47;;
4375;SDS011;2202;50.866;12.750;2023-05-10T01:37:02;9.63;;;5.80;;
4375;SDS011;2202;50.866;12.750;2023-05-10T01:39:36;10.90;;;5.83;;
4375;SDS011;2202;50.866;12.750;2023-05-10T01:42:10;15.00;;;6.73;;
4375;SDS011;2202;50.866;12.750;2023-05-10T01:44:42;9.33;;;5.83;;
4375;SDS011;2202;50.866;12.750;2023-05-10T01:47:15;9.47;;;5.50;;
4375;SDS011;2202;50.866;12.750;2023-05-10T01:49:49;9.77;;;5.70;;
4375;SDS011;2202;50.866;12.750;2023-05-10T01:52:18;9.77;;;5.43;;
4375;SDS011;2202;50.866;12.750;2023-05-10T01:54:49;10.93;;;5.83;;
4375;SDS011;2202;50.866;12.750;2023-05-10T01:57:19;11.57;;;6.03;;
4375;SDS011;2202;50.866;12.750;2023-05-10T01:59:51;8.60;;;5.90;;
4375;SDS011;2202;50.866;12.750;2023-05-10T02:02:20;9.27;;;5.20;;
4375;SDS011;2202;50.866;12.750;2023-05-10T02:04:48;9.13;;;5.87;;
4375;SDS011;2202;50.866;12.750;2023-05-10T02:07:16;10.67;;;6.20;;
4375;SDS011;2202;50.866;12.750;2023-05-10T02:09:45;27.13;;;5.60;;
4375;SDS011;2202;50.866;12.750;2023-05-10T02:12:13;8.93;;;5.00;;
4375;SDS011;2202;50.866;12.750;2023-05-10T02:14:41;10.20;;;6.27;;
4375;SDS011;2202;50.866;12.750;2023-05-10T02:17:10;13.40;;;6.07;;
4375;SDS011;2202;50.866;12.750;2023-05-10T02:19:39;7.97;;;4.87;;
4375;SDS011;2202;50.866;12.750;2023-05-10T02:22:09;9.93;;;6.07;;
4375;SDS011;2202;50.866;12.750;2023-05-10T02:24:37;9.80;;;6.17;;
4375;SDS011;2202;50.866;12.750;2023-05-10T02:27:05;9.20;;;6.03;;
4375;SDS011;2202;50.866;12.750;2023-05-10T02:29:33;8.90;;;5.67;;
4375;SDS011;2202;50.866;12.750;2023-05-10T02:32:02;10.40;;;6.23;;
4375;SDS011;2202;50.866;12.750;2023-05-10T02:34:30;9.03;;;6.23;;
4375;SDS011;2202;50.866;12.750;2023-05-10T02:36:57;10.00;;;6.10;;
4375;SDS011;2202;50.866;12.750;2023-05-10T02:39:27;11.17;;;5.97;;
4375;SDS011;2202;50.866;12.750;2023-05-10T02:41:55;10.60;;;5.80;;
4375;SDS011;2202;50.866;12.750;2023-05-10T02:44:23;9.23;;;5.70;;
4375;SDS011;2202;50.866;12.750;2023-05-10T02:46:56;9.40;;;5.87;;
4375;SDS011;2202;50.866;12.750;2023-05-10T02:49:23;8.60;;;6.17;;
4375;SDS011;2202;50.866;12.750;2023-05-10T02:51:51;11.00;;;6.17;;
4375;SDS011;2202;50.866;12.750;2023-05-10T02:54:24;10.30;;;5.93;;
4375;SDS011;2202;50.866;12.750;2023-05-10T02:56:57;42.07;;;7.30;;
4375;SDS011;2202;50.866;12.750;2023-05-10T02:59:25;8.70;;;5.77;;
4375;SDS011;2202;50.866;12.750;2023-05-10T03:01:52;9.17;;;5.80;;
4375;SDS011;2202;50.866;12.750;2023-05-10T03:04:19;9.07;;;7.00;;
4375;SDS011;2202;50.866;12.750;2023-05-10T03:06:46;8.07;;;6.03;;
4375;SDS011;2202;50.866;12.750;2023-05-10T03:09:13;10.87;;;6.40;;
4375;SDS011;2202;50.866;12.750;2023-05-10T03:11:49;8.87;;;6.43;;
4375;SDS011;2202;50.866;12.750;2023-05-10T03:14:25;8.90;;;6.40;;
4375;SDS011;2202;50.866;12.750;2023-05-10T03:17:04;11.53;;;6.90;;
4375;SDS011;2202;50.866;12.750;2023-05-10T03:19:37;7.60;;;5.60;;
4375;SDS011;2202;50.866;12.750;2023-05-10T03:22:14;8.87;;;6.20;;
4375;SDS011;2202;50.866;12.750;2023-05-10T03:24:49;8.43;;;6.70;;
4375;SDS011;2202;50.866;12.750;2023-05-10T03:27:21;7.67;;;5.93;;
4375;SDS011;2202;50.866;12.750;2023-05-10T03:29:50;9.80;;;6.70;;
4375;SDS011;2202;50.866;12.750;2023-05-10T03:32:18;9.37;;;6.47;;
4375;SDS011;2202;50.866;12.750;2023-05-10T03:34:45;7.73;;;6.27;;
4375;SDS011;2202;50.866;12.750;2023-05-10T03:37:12;7.43;;;6.33;;
4375;SDS011;2202;50.866;12.750;2023-05-10T03:39:39;8.70;;;7.10;;
4375;SDS011;2202;50.866;12.750;2023-05-10T03:42:06;8.60;;;7.00;;
4375;SDS011;2202;50.866;12.750;2023-05-10T03:44:34;8.40;;;5.27;;
4375;SDS011;2202;50.866;12.750;2023-05-10T03:47:01;8.67;;;6.50;;
4375;SDS011;2202;50.866;12.750;2023-05-10T03:49:27;7.60;;;6.17;;
4375;SDS011;2202;50.866;12.750;2023-05-10T03:51:54;7.70;;;6.00;;
4375;SDS011;2202;50.866;12.750;2023-05-10T03:54:21;7.50;;;6.30;;
4375;SDS011;2202;50.866;12.750;2023-05-10T03:56:48;9.33;;;6.20;;
4375;SDS011;2202;50.866;12.750;2023-05-10T03:59:15;8.90;;;6.73;;
4375;SDS011;2202;50.866;12.750;2023-05-10T04:01:43;7.83;;;6.23;;
4375;SDS011;2202;50.866;12.750;2023-05-10T04:04:10;8.93;;;6.00;;
4375;SDS011;2202;50.866;12.750;2023-05-10T04:06:37;9.83;;;7.23;;
4375;SDS011;2202;50.866;12.750;2023-05-10T04:09:04;13.90;;;7.10;;
4375;SDS011;2202;50.866;12.750;2023-05-10T04:11:31;8.60;;;5.53;;
4375;SDS011;2202;50.866;12.750;2023-05-10T04:13:58;8.30;;;6.17;;
4375;SDS011;2202;50.866;12.750;2023-05-10T04:16:25;7.93;;;6.20;;
4375;SDS011;2202;50.866;12.750;2023-05-10T04:18:53;8.30;;;6.13;;
4375;SDS011;2202;50.866;12.750;2023-05-10T04:21:20;8.57;;;6.50;;
4375;SDS011;2202;50.866;12.750;2023-05-10T04:23:46;7.43;;;5.80;;
4375;SDS011;2202;50.866;12.750;2023-05-10T04:26:13;7.90;;;6.27;;
4375;SDS011;2202;50.866;12.750;2023-05-10T04:28:40;9.30;;;6.37;;
4375;SDS011;2202;50.866;12.750;2023-05-10T04:31:08;7.40;;;5.73;;
4375;SDS011;2202;50.866;12.750;2023-05-10T04:33:35;8.60;;;5.90;;
4375;SDS011;2202;50.866;12.750;2023-05-10T04:36:04;10.23;;;6.50;;
4375;SDS011;2202;50.866;12.750;2023-05-10T04:38:32;7.37;;;5.60;;
4375;SDS011;2202;50.866;12.750;2023-05-10T04:41:05;8.93;;;6.20;;
4375;SDS011;2202;50.866;12.750;2023-05-10T04:43:32;9.40;;;6.60;;
4375;SDS011;2202;50.866;12.750;2023-05-10T04:45:59;7.20;;;5.80;;
4375;SDS011;2202;50.866;12.750;2023-05-10T04:48:26;8.90;;;5.90;;
4375;SDS011;2202;50.866;12.750;2023-05-10T04:50:53;9.20;;;6.77;;
4375;SDS011;2202;50.866;12.750;2023-05-10T04:53:21;17.47;;;5.90;;
4375;SDS011;2202;50.866;12.750;2023-05-10T04:55:48;8.57;;;5.73;;
4375;SDS011;2202;50.866;12.750;2023-05-10T04:58:15;10.50;;;5.90;;
4375;SDS011;2202;50.866;12.750;2023-05-10T05:00:42;9.83;;;5.03;;
4375;SDS011;2202;50.866;12.750;2023-05-10T05:03:09;11.83;;;6.03;;
4375;SDS011;2202;50.866;12.750;2023-05-10T05:05:36;9.00;;;5.70;;
4375;SDS011;2202;50.866;12.750;2023-05-10T05:08:03;7.97;;;6.40;;
4375;SDS011;2202;50.866;12.750;2023-05-10T05:10:31;9.37;;;6.57;;
4375;SDS011;2202;50.866;12.750;2023-05-10T05:12:58;6.93;;;5.60;;
4375;SDS011;2202;50.866;12.750;2023-05-10T05:15:25;7.93;;;5.30;;
4375;SDS011;2202;50.866;12.750;2023-05-10T05:17:52;9.17;;;5.93;;
4375;SDS011;2202;50.866;12.750;2023-05-10T05:20:19;7.13;;;5.00;;
4375;SDS011;2202;50.866;12.750;2023-05-10T05:22:46;8.07;;;5.80;;
4375;SDS011;2202;50.866;12.750;2023-05-10T05:25:13;9.17;;;5.03;;
4375;SDS011;2202;50.866;12.750;2023-05-10T05:27:41;9.27;;;5.67;;
4375;SDS011;2202;50.866;12.750;2023-05-10T05:30:08;8.10;;;5.07;;
4375;SDS011;2202;50.866;12.750;2023-05-10T05:32:36;9.63;;;4.90;;
4375;SDS011;2202;50.866;12.750;2023-05-10T05:35:03;9.50;;;6.07;;
4375;SDS011;2202;50.866;12.750;2023-05-10T05:37:31;10.40;;;5.33;;
4375;SDS011;2202;50.866;12.750;2023-05-10T05:39:57;11.27;;;5.63;;
4375;SDS011;2202;50.866;12.750;2023-05-10T05:42:26;9.13;;;5.43;;
4375;SDS011;2202;50.866;12.750;2023-05-10T05:44:54;9.07;;;6.07;;
4375;SDS011;2202;50.866;12.750;2023-05-10T05:47:21;7.80;;;5.40;;
4375;SDS011;2202;50.866;12.750;2023-05-10T05:49:48;10.60;;;6.00;;
4375;SDS011;2202;50.866;12.750;2023-05-10T05:52:15;8.43;;;5.77;;
4375;SDS011;2202;50.866;12.750;2023-05-10T05:54:43;7.70;;;4.93;;
4375;SDS011;2202;50.866;12.750;2023-05-10T05:57:09;8.53;;;5.03;;
4375;SDS011;2202;50.866;12.750;2023-05-10T05:59:36;10.80;;;6.37;;
4375;SDS011;2202;50.866;12.750;2023-05-10T06:02:08;9.47;;;5.13;;
4375;SDS011;2202;50.866;12.750;2023-05-10T06:04:35;7.53;;;5.10;;
4375;SDS011;2202;50.866;12.750;2023-05-10T06:07:02;8.33;;;5.23;;
4375;SDS011;2202;50.866;12.750;2023-05-10T06:09:28;14.40;;;6.00;;
4375;SDS011;2202;50.866;12.750;2023-05-10T06:11:55;9.13;;;4.80;;
4375;SDS011;2202;50.866;12.750;2023-05-10T06:14:22;11.40;;;6.27;;
4375;SDS011;2202;50.866;12.750;2023-05-10T06:16:49;9.73;;;6.17;;
4375;SDS011;2202;50.866;12.750;2023-05-10T06:19:17;10.90;;;4.90;;
4375;SDS011;2202;50.866;12.750;2023-05-10T06:21:44;8.80;;;4.63;;
4375;SDS011;2202;50.866;12.750;2023-05-10T06:24:11;9.40;;;5.40;;
4375;SDS011;2202;50.866;12.750;2023-05-10T06:26:38;12.17;;;4.77;;
4375;SDS011;2202;50.866;12.750;2023-05-10T06:29:05;6.83;;;4.30;;
4375;SDS011;2202;50.866;12.750;2023-05-10T06:31:32;10.00;;;5.00;;
4375;SDS011;2202;50.866;12.750;2023-05-10T06:33:58;8.67;;;5.40;;
4375;SDS011;2202;50.866;12.750;2023-05-10T06:36:27;8.33;;;5.40;;
4375;SDS011;2202;50.866;12.750;2023-05-10T06:38:54;9.30;;;5.80;;
4375;SDS011;2202;50.866;12.750;2023-05-10T06:41:21;13.17;;;5.60;;
4375;SDS011;2202;50.866;12.750;2023-05-10T06:43:48;12.50;;;4.93;;
4375;SDS011;2202;50.866;12.750;2023-05-10T06:46:15;9.97;;;5.40;;
4375;SDS011;2202;50.866;12.750;2023-05-10T06:48:42;9.00;;;5.30;;
4375;SDS011;2202;50.866;12.750;2023-05-10T06:51:09;11.70;;;6.23;;
4375;SDS011;2202;50.866;12.750;2023-05-10T06:53:37;12.20;;;5.87;;
4375;SDS011;2202;50.866;12.750;2023-05-10T06:56:04;14.00;;;5.20;;
4375;SDS011;2202;50.866;12.750;2023-05-10T06:58:31;9.87;;;4.97;;
4375;SDS011;2202;50.866;12.750;2023-05-10T07:01:01;9.43;;;4.80;;
4375;SDS011;2202;50.866;12.750;2023-05-10T07:03:28;7.83;;;5.27;;
4375;SDS011;2202;50.866;12.750;2023-05-10T07:05:59;9.97;;;5.80;;
4375;SDS011;2202;50.866;12.750;2023-05-10T07:08:28;8.67;;;5.30;;
4375;SDS011;2202;50.866;12.750;2023-05-10T07:11:00;9.20;;;5.50;;
4375;SDS011;2202;50.866;12.750;2023-05-10T07:13:28;8.73;;;4.90;;
4375;SDS011;2202;50.866;12.750;2023-05-10T07:15:55;10.00;;;5.17;;
4375;SDS011;2202;50.866;12.750;2023-05-10T07:18:22;11.90;;;5.30;;
4375;SDS011;2202;50.866;12.750;2023-05-10T07:20:49;10.53;;;4.90;;
4375;SDS011;2202;50.866;12.750;2023-05-10T07:23:16;8.63;;;4.90;;
4375;SDS011;2202;50.866;12.750;2023-05-10T07:25:44;8.90;;;4.97;;
4375;SDS011;2202;50.866;12.750;2023-05-10T07:28:13;7.33;;;4.90;;
4375;SDS011;2202;50.866;12.750;2023-05-10T07:30:40;8.83;;;5.37;;
4375;SDS011;2202;50.866;12.750;2023-05-10T07:33:07;11.33;;;4.80;;
4375;SDS011;2202;50.866;12.750;2023-05-10T07:35:34;8.40;;;5.63;;
4375;SDS011;2202;50.866;12.750;2023-05-10T07:38:01;8.70;;;5.60;;
4375;SDS011;2202;50.866;12.750;2023-05-10T07:40:28;10.20;;;6.30;;
4375;SDS011;2202;50.866;12.750;2023-05-10T07:42:55;9.27;;;5.63;;
4375;SDS011;2202;50.866;12.750;2023-05-10T07:45:23;8.83;;;5.67;;
4375;SDS011;2202;50.866;12.750;2023-05-10T07:47:50;12.10;;;5.70;;
4375;SDS011;2202;50.866;12.750;2023-05-10T07:50:17;9.87;;;5.87;;
4375;SDS011;2202;50.866;12.750;2023-05-10T07:52:44;10.13;;;5.43;;
4375;SDS011;2202;50.866;12.750;2023-05-10T07:55:11;10.43;;;5.70;;
4375;SDS011;2202;50.866;12.750;2023-05-10T07:57:38;9.87;;;6.00;;
4375;SDS011;2202;50.866;12.750;2023-05-10T08:00:05;8.37;;;4.77;;
4375;SDS011;2202;50.866;12.750;2023-05-10T08:02:35;8.20;;;5.50;;
4375;SDS011;2202;50.866;12.750;2023-05-10T08:05:02;8.53;;;5.27;;
4375;SDS011;2202;50.866;12.750;2023-05-10T08:07:30;12.93;;;5.77;;
4375;SDS011;2202;50.866;12.750;2023-05-10T08:09:57;12.23;;;6.07;;
4375;SDS011;2202;50.866;12.750;2023-05-10T08:12:24;10.50;;;6.60;;
4375;SDS011;2202;50.866;12.750;2023-05-10T08:14:50;9.57;;;5.83;;
4375;SDS011;2202;50.866;12.750;2023-05-10T08:17:17;10.53;;;5.77;;
4375;SDS011;2202;50.866;12.750;2023-05-10T08:19:45;8.33;;;5.83;;
4375;SDS011;2202;50.866;12.750;2023-05-10T08:22:12;12.17;;;6.00;;
4375;SDS011;2202;50.866;12.750;2023-05-10T08:24:39;9.83;;;6.40;;
4375;SDS011;2202;50.866;12.750;2023-05-10T08:27:07;10.07;;;6.37;;
4375;SDS011;2202;50.866;12.750;2023-05-10T08:29:34;9.87;;;5.93;;
4375;SDS011;2202;50.866;12.750;2023-05-10T08:32:01;10.67;;;7.27;;
4375;SDS011;2202;50.866;12.750;2023-05-10T08:34:28;9.47;;;6.63;;
4375;SDS011;2202;50.866;12.750;2023-05-10T08:36:57;9.43;;;6.50;;
4375;SDS011;2202;50.866;12.750;2023-05-10T08:39:24;10.23;;;7.23;;
4375;SDS011;2202;50.866;12.750;2023-05-10T08:41:51;14.00;;;7.20;;
4375;SDS011;2202;50.866;12.750;2023-05-10T08:44:24;10.70;;;7.40;;
4375;SDS011;2202;50.866;12.750;2023-05-10T08:46:51;11.37;;;8.17;;
4375;SDS011;2202;50.866;12.750;2023-05-10T08:49:20;10.57;;;8.53;;
4375;SDS011;2202;50.866;12.750;2023-05-10T08:51:49;11.80;;;8.40;;
4375;SDS011;2202;50.866;12.750;2023-05-10T08:54:21;9.30;;;7.77;;
4375;SDS011;2202;50.866;12.750;2023-05-10T08:56:48;7.13;;;6.40;;
4375;SDS011;2202;50.866;12.750;2023-05-10T08:59:15;8.73;;;7.83;;
4375;SDS011;2202;50.866;12.750;2023-05-10T09:01:42;9.40;;;8.30;;
4375;SDS011;2202;50.866;12.750;2023-05-10T09:04:10;9.47;;;8.10;;
4375;SDS011;2202;50.866;12.750;2023-05-10T09:06:38;7.80;;;7.10;;
4375;SDS011;2202;50.866;12.750;2023-05-10T09:09:05;7.90;;;7.00;;
4375;SDS011;2202;50.866;12.750;2023-05-10T09:11:33;8.97;;;7.37;;
4375;SDS011;2202;50.866;12.750;2023-05-10T09:14:00;8.43;;;7.63;;
4375;SDS011;2202;50.866;12.750;2023-05-10T09:16:28;8.00;;;7.17;;
4375;SDS011;2202;50.866;12.750;2023-05-10T09:18:55;8.63;;;7.83;;
4375;SDS011;2202;50.866;12.750;2023-05-10T09:21:22;8.53;;;7.30;;
4375;SDS011;2202;50.866;12.750;2023-05-10T09:23:49;9.37;;;8.10;;
4375;SDS011;2202;50.866;12.750;2023-05-10T09:26:21;9.90;;;8.03;;
4375;SDS011;2202;50.866;12.750;2023-05-10T09:28:54;8.27;;;7.50;;
4375;SDS011;2202;50.866;12.750;2023-05-10T09:31:22;9.20;;;8.30;;
4375;SDS011;2202;50.866;12.750;2023-05-10T09:33:51;10.83;;;8.63;;
4375;SDS011;2202;50.866;12.750;2023-05-10T09:36:18;9.97;;;8.33;;
4375;SDS011;2202;50.866;12.750;2023-05-10T09:38:45;9.70;;;8.43;;
4375;SDS011;2202;50.866;12.750;2023-05-10T09:41:16;9.33;;;8.43;;
4375;SDS011;2202;50.866;12.750;2023-05-10T09:43:44;9.80;;;8.80;;
4375;SDS011;2202;50.866;12.750;2023-05-10T09:46:12;10.80;;;9.70;;
4375;SDS011;2202;50.866;12.750;2023-05-10T09:48:43;10.60;;;8.87;;
4375;SDS011;2202;50.866;12.750;2023-05-10T09:51:18;10.30;;;8.47;;
4375;SDS011;2202;50.866;12.750;2023-05-10T09:53:46;13.50;;;9.83;;
4375;SDS011;2202;50.866;12.750;2023-05-10T09:56:18;9.03;;;8.13;;
4375;SDS011;2202;50.866;12.750;2023-05-10T09:59:01;12.80;;;9.50;;
4375;SDS011;2202;50.866;12.750;2023-05-10T10:01:30;11.53;;;8.03;;
4375;SDS011;2202;50.866;12.750;2023-05-10T10:03:57;9.17;;;8.20;;
4375;SDS011;2202;50.866;12.750;2023-05-10T10:06:24;9.50;;;8.53;;
4375;SDS011;2202;50.866;12.750;2023-05-10T10:08:51;9.63;;;8.63;;
4375;SDS011;2202;50.866;12.750;2023-05-10T10:11:21;11.50;;;8.87;;
4375;SDS011;2202;50.866;12.750;2023-05-10T10:13:49;12.50;;;8.40;;
4375;SDS011;2202;50.866;12.750;2023-05-10T10:16:16;8.73;;;7.83;;
4375;SDS011;2202;50.866;12.750;2023-05-10T10:18:44;9.80;;;8.83;;
4375;SDS011;2202;50.866;12.750;2023-05-10T10:21:12;8.90;;;7.93;;
4375;SDS011;2202;50.866;12.750;2023-05-10T10:23:39;9.87;;;8.87;;
4375;SDS011;2202;50.866;12.750;2023-05-10T10:26:06;10.13;;;9.07;;
4375;SDS011;2202;50.866;12.750;2023-05-10T10:28:35;9.47;;;8.57;;
4375;SDS011;2202;50.866;12.750;2023-05-10T10:31:13;10.23;;;8.53;;
4375;SDS011;2202;50.866;12.750;2023-05-10T10:33:55;11.13;;;9.27;;
4375;SDS011;2202;50.866;12.750;2023-05-10T10:36:25;10.77;;;9.67;;
4375;SDS011;2202;50.866;12.750;2023-05-10T10:38:56;10.97;;;9.13;;
4375;SDS011;2202;50.866;12.750;2023-05-10T10:41:29;11.20;;;9.03;;
4375;SDS011;2202;50.866;12.750;2023-05-10T10:47:09;9.63;;;8.50;;
4375;SDS011;2202;50.866;12.750;2023-05-10T10:49:51;12.53;;;9.90;;
4375;SDS011;2202;50.866;12.750;2023-05-10T10:52:30;8.87;;;7.97;;
4375;SDS011;2202;50.866;12.750;2023-05-10T10:54:59;8.50;;;7.70;;
4375;SDS011;2202;50.866;12.750;2023-05-10T10:57:28;10.07;;;8.00;;
4375;SDS011;2202;50.866;12.750;2023-05-10T11:02:45;10.47;;;9.07;;
4375;SDS011;2202;50.866;12.750;2023-05-10T11:05:25;8.70;;;7.90;;
4375;SDS011;2202;50.866;12.750;2023-05-10T11:08:09;10.50;;;8.57;;
4375;SDS011;2202;50.866;12.750;2023-05-10T11:10:49;9.47;;;8.43;;
4375;SDS011;2202;50.866;12.750;2023-05-10T11:13:21;16.60;;;9.30;;
4375;SDS011;2202;50.866;12.750;2023-05-10T11:15:53;11.03;;;9.93;;
4375;SDS011;2202;50.866;12.750;2023-05-10T11:18:23;8.93;;;8.03;;
4375;SDS011;2202;50.866;12.750;2023-05-10T11:20:52;10.30;;;9.30;;
4375;SDS011;2202;50.866;12.750;2023-05-10T11:23:23;9.40;;;8.60;;
4375;SDS011;2202;50.866;12.750;2023-05-10T11:25:50;10.60;;;9.60;;
4375;SDS011;2202;50.866;12.750;2023-05-10T11:28:17;11.50;;;9.80;;
4375;SDS011;2202;50.866;12.750;2023-05-10T11:30:45;9.87;;;8.93;;
4375;SDS011;2202;50.866;12.750;2023-05-10T11:33:15;13.00;;;9.53;;
4375;SDS011;2202;50.866;12.750;2023-05-10T11:35:43;9.90;;;9.00;;
4375;SDS011;2202;50.866;12.750;2023-05-10T11:38:11;12.43;;;10.23;;
4375;SDS011;2202;50.866;12.750;2023-05-10T11:40:41;12.20;;;8.87;;
4375;SDS011;2202;50.866;12.750;2023-05-10T11:43:08;9.23;;;8.23;;
4375;SDS011;2202;50.866;12.750;2023-05-10T11:45:37;10.83;;;9.73;;
4375;SDS011;2202;50.866;12.750;2023-05-10T11:48:04;9.93;;;9.00;;
4375;SDS011;2202;50.866;12.750;2023-05-10T11:50:31;9.20;;;8.30;;
4375;SDS011;2202;50.866;12.750;2023-05-10T11:52:58;9.47;;;8.47;;
4375;SDS011;2202;50.866;12.750;2023-05-10T11:55:26;10.90;;;8.93;;
4375;SDS011;2202;50.866;12.750;2023-05-10T11:57:55;10.50;;;9.00;;
4375;SDS011;2202;50.866;12.750;2023-05-10T12:00:26;9.40;;;8.53;;
4375;SDS011;2202;50.866;12.750;2023-05-10T12:02:52;10.33;;;8.10;;
4375;SDS011;2202;50.866;12.750;2023-05-10T12:05:19;8.73;;;7.80;;
4375;SDS011;2202;50.866;12.750;2023-05-10T12:07:47;8.90;;;7.53;;
4375;SDS011;2202;50.866;12.750;2023-05-10T12:10:13;9.73;;;8.20;;
4375;SDS011;2202;50.866;12.750;2023-05-10T12:12:44;9.50;;;8.50;;
4375;SDS011;2202;50.866;12.750;2023-05-10T12:15:12;8.37;;;7.53;;
4375;SDS011;2202;50.866;12.750;2023-05-10T12:17:44;9.60;;;7.93;;
4375;SDS011;2202;50.866;12.750;2023-05-10T12:20:13;8.47;;;7.40;;
4375;SDS011;2202;50.866;12.750;2023-05-10T12:22:40;8.70;;;7.80;;
4375;SDS011;2202;50.866;12.750;2023-05-10T12:25:09;9.90;;;9.00;;
4375;SDS011;2202;50.866;12.750;2023-05-10T12:27:36;9.00;;;8.10;;
4375;SDS011;2202;50.866;12.750;2023-05-10T12:30:05;8.07;;;7.37;;
4375;SDS011;2202;50.866;12.750;2023-05-10T12:32:39;8.90;;;8.00;;
4375;SDS011;2202;50.866;12.750;2023-05-10T12:35:07;8.77;;;7.97;;
4375;SDS011;2202;50.866;12.750;2023-05-10T12:37:35;9.10;;;8.00;;
4375;SDS011;2202;50.866;12.750;2023-05-10T12:40:05;9.03;;;8.10;;
4375;SDS011;2202;50.866;12.750;2023-05-10T12:42:34;10.77;;;8.90;;
4375;SDS011;2202;50.866;12.750;2023-05-10T12:45:01;10.47;;;9.43;;
4375;SDS011;2202;50.866;12.750;2023-05-10T12:47:30;9.30;;;8.40;;
4375;SDS011;2202;50.866;12.750;2023-05-10T12:49:57;9.07;;;8.17;;
4375;SDS011;2202;50.866;12.750;2023-05-10T12:52:24;11.10;;;7.57;;
4375;SDS011;2202;50.866;12.750;2023-05-10T12:54:51;9.13;;;8.23;;
4375;SDS011;2202;50.866;12.750;2023-05-10T12:57:18;8.23;;;7.53;;
4375;SDS011;2202;50.866;12.750;2023-05-10T12:59:44;8.73;;;7.93;;
4375;SDS011;2202;50.866;12.750;2023-05-10T13:02:11;9.33;;;7.80;;
4375;SDS011;2202;50.866;12.750;2023-05-10T13:04:41;8.73;;;7.90;;
4375;SDS011;2202;50.866;12.750;2023-05-10T13:07:08;9.23;;;8.00;;
4375;SDS011;2202;50.866;12.750;2023-05-10T13:09:35;8.30;;;7.50;;
4375;SDS011;2202;50.866;12.750;2023-05-10T13:12:02;7.93;;;7.13;;
4375;SDS011;2202;50.866;12.750;2023-05-10T13:14:29;13.03;;;8.00;;
4375;SDS011;2202;50.866;12.750;2023-05-10T13:16:56;7.93;;;7.23;;
4375;SDS011;2202;50.866;12.750;2023-05-10T13:19:22;7.40;;;6.70;;
4375;SDS011;2202;50.866;12.750;2023-05-10T13:21:51;9.33;;;8.10;;
4375;SDS011;2202;50.866;12.750;2023-05-10T13:24:18;8.37;;;7.40;;
4375;SDS011;2202;50.866;12.750;2023-05-10T13:26:45;6.90;;;6.27;;
4375;SDS011;2202;50.866;12.750;2023-05-10T13:29:11;7.33;;;6.63;;
4375;SDS011;2202;50.866;12.750;2023-05-10T13:31:38;7.30;;;6.60;;
4375;SDS011;2202;50.866;12.750;2023-05-10T13:34:05;7.00;;;6.40;;
4375;SDS011;2202;50.866;12.750;2023-05-10T13:36:32;6.73;;;6.13;;
4375;SDS011;2202;50.866;12.750;2023-05-10T13:39:00;7.13;;;6.03;;
4375;SDS011;2202;50.866;12.750;2023-05-10T13:41:28;6.73;;;5.77;;
4375;SDS011;2202;50.866;12.750;2023-05-10T13:43:55;8.23;;;5.20;;
4375;SDS011;2202;50.866;12.750;2023-05-10T13:46:22;6.83;;;4.90;;
4375;SDS011;2202;50.866;12.750;2023-05-10T13:48:49;8.10;;;5.93;;
4375;SDS011;2202;50.866;12.750;2023-05-10T13:51:15;5.53;;;5.03;;
4375;SDS011;2202;50.866;12.750;2023-05-10T13:53:42;6.10;;;5.50;;
4375;SDS011;2202;50.866;12.750;2023-05-10T13:56:10;5.70;;;5.20;;
4375;SDS011;2202;50.866;12.750;2023-05-10T13:58:38;6.43;;;5.93;;
4375;SDS011;2202;50.866;12.750;2023-05-10T14:01:04;5.80;;;5.37;;
4375;SDS011;2202;50.866;12.750;2023-05-10T14:03:31;8.00;;;7.20;;
4375;SDS011;2202;50.866;12.750;2023-05-10T14:05:58;8.10;;;7.40;;
4375;SDS011;2202;50.866;12.750;2023-05-10T14:08:25;7.57;;;6.87;;
4375;SDS011;2202;50.866;12.750;2023-05-10T14:10:53;7.90;;;7.10;;
4375;SDS011;2202;50.866;12.750;2023-05-10T14:13:22;6.80;;;6.23;;
4375;SDS011;2202;50.866;12.750;2023-05-10T14:15:49;8.90;;;8.10;;
4375;SDS011;2202;50.866;12.750;2023-05-10T14:18:16;11.93;;;8.07;;
4375;SDS011;2202;50.866;12.750;2023-05-10T14:20:43;7.40;;;6.77;;
4375;SDS011;2202;50.866;12.750;2023-05-10T14:23:10;6.87;;;6.27;;
4375;SDS011;2202;50.866;12.750;2023-05-10T14:25:37;6.90;;;6.30;;
4375;SDS011;2202;50.866;12.750;2023-05-10T14:28:04;6.20;;;5.67;;
4375;SDS011;2202;50.866;12.750;2023-05-10T14:30:32;5.83;;;5.30;;
4375;SDS011;2202;50.866;12.750;2023-05-10T14:33:00;6.43;;;5.90;;
4375;SDS011;2202;50.866;12.750;2023-05-10T14:35:28;6.90;;;6.30;;
4375;SDS011;2202;50.866;12.750;2023-05-10T14:37:56;6.23;;;5.63;;
4375;SDS011;2202;50.866;12.750;2023-05-10T14:40:23;7.60;;;6.80;;
4375;SDS011;2202;50.866;12.750;2023-05-10T14:42:50;6.80;;;6.20;;
4375;SDS011;2202;50.866;12.750;2023-05-10T14:45:17;5.80;;;5.30;;
4375;SDS011;2202;50.866;12.750;2023-05-10T14:47:46;6.40;;;5.80;;
4375;SDS011;2202;50.866;12.750;2023-05-10T14:50:13;7.37;;;6.57;;
4375;SDS011;2202;50.866;12.750;2023-05-10T14:52:39;6.27;;;5.77;;
4375;SDS011;2202;50.866;12.750;2023-05-10T14:55:07;6.73;;;5.80;;
4375;SDS011;2202;50.866;12.750;2023-05-10T14:57:34;6.63;;;6.03;;
4375;SDS011;2202;50.866;12.750;2023-05-10T15:00:01;8.03;;;7.23;;
4375;SDS011;2202;50.866;12.750;2023-05-10T15:02:29;6.60;;;6.10;;
4375;SDS011;2202;50.866;12.750;2023-05-10T15:04:58;6.10;;;5.50;;
4375;SDS011;2202;50.866;12.750;2023-05-10T15:07:24;7.17;;;6.50;;
4375;SDS011;2202;50.866;12.750;2023-05-10T15:09:51;8.13;;;6.90;;
4375;SDS011;2202;50.866;12.750;2023-05-10T15:12:19;6.70;;;6.10;;
4375;SDS011;2202;50.866;12.750;2023-05-10T15:14:46;7.50;;;5.80;;
4375;SDS011;2202;50.866;12.750;2023-05-10T15:17:13;7.27;;;6.57;;